createdAt,value
2018-12-03T00:01:53.761Z,93.70
2018-12-03T00:04:24.500Z,93.80
2018-12-03T00:06:54.459Z,93.70
2018-12-03T00:09:24.358Z,93.70
2018-12-03T00:11:54.237Z,93.90
2018-12-03T00:14:24.101Z,94.00
2018-12-03T00:16:54.136Z,93.80
2018-12-03T00:19:24.144Z,93.80
2018-12-03T00:21:54.200Z,93.90
2018-12-03T00:24:24.150Z,93.80
2018-12-03T00:26:54.075Z,94.00
2018-12-03T00:29:24.000Z,94.10
2018-12-03T00:31:54.016Z,94.00
2018-12-03T00:34:23.901Z,93.70
2018-12-03T00:36:53.807Z,93.80
2018-12-03T00:39:23.715Z,93.90
2018-12-03T00:41:53.612Z,93.20
2018-12-03T00:44:23.486Z,93.40
2018-12-03T00:46:53.451Z,93.30
2018-12-03T00:49:23.304Z,93.30
2018-12-03T00:51:53.206Z,93.30
2018-12-03T00:54:23.203Z,93.30
2018-12-03T00:56:53.021Z,93.50
2018-12-03T00:59:22.854Z,93.70
2018-12-03T01:01:52.753Z,93.90
2018-12-03T01:04:22.666Z,93.90
2018-12-03T01:06:52.549Z,93.60
2018-12-03T01:09:22.443Z,93.50
2018-12-03T01:11:52.321Z,93.50
2018-12-03T01:14:22.202Z,93.30
2018-12-03T01:16:52.117Z,93.10
2018-12-03T01:19:21.995Z,92.80
2018-12-03T01:21:51.870Z,92.70
2018-12-03T01:24:21.756Z,92.70
2018-12-03T01:26:51.671Z,92.40
2018-12-03T01:29:21.917Z,92.50
2018-12-03T01:31:53.009Z,92.50
2018-12-03T01:34:23.076Z,92.30
2018-12-03T01:36:52.979Z,92.50
2018-12-03T01:39:22.821Z,92.40
2018-12-03T01:41:52.776Z,92.20
2018-12-03T01:44:22.601Z,92.00
2018-12-03T01:46:52.504Z,91.80
2018-12-03T01:49:22.374Z,91.60
2018-12-03T01:51:52.256Z,91.40
2018-12-03T01:54:22.102Z,91.20
2018-12-03T01:56:51.987Z,91.00
2018-12-03T01:59:21.861Z,90.70
2018-12-03T02:01:51.824Z,90.40
2018-12-03T02:04:21.727Z,89.40
2018-12-03T02:06:51.580Z,88.00
2018-12-03T02:09:21.444Z,89.00
2018-12-03T02:11:51.283Z,88.70
2018-12-03T02:14:21.168Z,88.20
2018-12-03T02:16:50.974Z,89.30
2018-12-03T02:19:20.849Z,88.90
2018-12-03T02:21:50.699Z,89.20
2018-12-03T02:24:20.577Z,87.30
2018-12-03T02:26:52.323Z,86.80
2018-12-03T02:29:22.257Z,85.70
2018-12-03T02:31:52.139Z,85.80
2018-12-03T02:34:22.023Z,85.20
2018-12-03T02:36:51.864Z,84.90
2018-12-03T02:39:21.747Z,84.70
2018-12-03T02:41:51.655Z,84.30
2018-12-03T02:44:21.903Z,83.60
2018-12-03T02:46:51.768Z,83.80
2018-12-03T02:49:21.727Z,84.40
2018-12-03T02:51:51.642Z,84.70
2018-12-03T02:54:21.517Z,84.00
2018-12-03T02:56:51.389Z,83.10
2018-12-03T02:59:21.253Z,83.30
2018-12-03T03:01:51.137Z,84.00
2018-12-03T03:04:21.413Z,84.20
2018-12-03T03:06:51.268Z,84.00
2018-12-03T03:09:21.459Z,82.90
2018-12-03T03:11:51.352Z,82.30
2018-12-03T03:14:21.255Z,81.80
2018-12-03T03:16:51.084Z,81.20
2018-12-03T03:19:20.914Z,81.60
2018-12-03T03:21:50.782Z,81.50
2018-12-03T03:24:20.680Z,83.90
2018-12-03T03:26:50.649Z,87.00
2018-12-03T03:29:20.543Z,88.60
2018-12-03T03:31:50.463Z,89.30
2018-12-03T03:34:20.361Z,89.80
2018-12-03T03:36:50.224Z,90.10
2018-12-03T03:39:20.106Z,90.20
2018-12-03T03:41:49.994Z,90.30
2018-12-03T03:44:19.832Z,90.30
2018-12-03T03:46:49.678Z,90.60
2018-12-03T03:49:19.549Z,90.70
2018-12-03T03:51:49.429Z,90.90
2018-12-03T03:54:25.115Z,91.10
2018-12-03T03:56:50.994Z,91.10
2018-12-03T03:59:20.893Z,91.20
2018-12-03T04:01:50.737Z,91.20
2018-12-03T04:04:20.583Z,91.40
2018-12-03T04:06:50.435Z,91.30
2018-12-03T04:09:20.333Z,91.40
2018-12-03T04:11:50.174Z,91.60
2018-12-03T04:14:20.114Z,91.90
2018-12-03T04:16:49.987Z,92.00
2018-12-03T04:19:19.842Z,92.00
2018-12-03T04:21:49.774Z,92.10
2018-12-03T04:24:20.437Z,92.20
2018-12-03T04:26:50.299Z,92.30
2018-12-03T04:29:20.157Z,92.50
2018-12-03T04:31:50.172Z,92.60
2018-12-03T04:34:20.070Z,92.60
2018-12-03T04:36:49.994Z,92.60
2018-12-03T04:39:19.840Z,92.70
2018-12-03T04:41:49.744Z,92.70
2018-12-03T04:44:19.773Z,92.80
2018-12-03T04:46:49.625Z,92.90
2018-12-03T04:49:19.535Z,92.80
2018-12-03T04:51:49.483Z,92.60
2018-12-03T04:54:19.307Z,92.50
2018-12-03T04:56:49.598Z,92.60
2018-12-03T04:59:19.498Z,92.50
2018-12-03T05:01:49.374Z,92.60
2018-12-03T05:04:19.201Z,92.80
2018-12-03T05:06:49.072Z,92.90
2018-12-03T05:09:18.988Z,92.80
2018-12-03T05:11:48.788Z,93.00
2018-12-03T05:14:19.536Z,92.90
2018-12-03T05:16:49.378Z,92.80
2018-12-03T05:19:19.275Z,92.70
2018-12-03T05:21:49.430Z,93.00
2018-12-03T05:24:19.301Z,93.20
2018-12-03T05:26:49.178Z,93.20
2018-12-03T05:29:19.061Z,93.30
2018-12-03T05:31:48.920Z,93.30
2018-12-03T05:34:18.834Z,93.50
2018-12-03T05:36:48.691Z,93.30
2018-12-03T05:39:18.595Z,93.40
2018-12-03T05:41:48.527Z,93.40
2018-12-03T05:44:18.380Z,93.40
2018-12-03T05:46:48.277Z,93.40
2018-12-03T05:49:18.106Z,93.40
2018-12-03T05:51:47.963Z,93.40
2018-12-03T05:54:18.680Z,93.40
2018-12-03T05:56:48.498Z,93.20
2018-12-03T05:59:18.360Z,93.20
2018-12-03T06:01:48.285Z,92.70
2018-12-03T06:04:18.150Z,91.40
2018-12-03T06:06:48.023Z,91.30
2018-12-03T06:09:17.877Z,90.20
2018-12-03T06:11:47.722Z,90.00
2018-12-03T06:14:17.629Z,86.80
2018-12-03T06:16:47.509Z,87.00
2018-12-03T06:19:17.375Z,86.30
2018-12-03T06:21:49.133Z,87.30
2018-12-03T06:24:19.014Z,87.30
2018-12-03T06:26:48.878Z,86.10
2018-12-03T06:29:18.693Z,86.60
2018-12-03T06:31:48.585Z,89.30
2018-12-03T06:34:19.045Z,90.50
2018-12-03T06:36:49.028Z,91.30
2018-12-03T06:39:18.855Z,91.80
2018-12-03T06:41:48.685Z,92.00
2018-12-03T06:44:18.539Z,92.20
2018-12-03T06:47:09.940Z,92.20
2018-12-03T06:49:40.386Z,92.30
2018-12-03T06:52:10.302Z,92.80
2018-12-03T06:54:40.195Z,92.80
2018-12-03T06:57:10.175Z,92.60
2018-12-03T06:59:40.025Z,93.60
2018-12-03T07:02:09.942Z,94.10
2018-12-03T07:04:39.822Z,94.50
2018-12-03T07:07:09.689Z,94.60
2018-12-03T07:09:39.596Z,94.70
2018-12-03T07:12:09.504Z,94.70
2018-12-03T07:14:39.351Z,94.70
2018-12-03T07:17:09.221Z,94.50
2018-12-03T07:19:39.051Z,94.50
2018-12-03T07:22:08.983Z,94.10
2018-12-03T07:24:38.849Z,93.40
2018-12-03T07:27:08.709Z,93.90
2018-12-03T07:29:38.606Z,93.50
2018-12-03T07:32:08.480Z,93.70
2018-12-03T07:34:38.331Z,93.80
2018-12-03T07:37:08.743Z,94.00
2018-12-03T07:39:38.570Z,94.10
2018-12-03T07:42:08.494Z,93.90
2018-12-03T07:44:38.347Z,94.00
2018-12-03T07:47:08.236Z,94.10
2018-12-03T07:49:38.063Z,93.90
2018-12-03T07:52:08.443Z,93.90
2018-12-03T07:54:38.293Z,93.90
2018-12-03T07:57:08.234Z,93.90
2018-12-03T07:59:37.980Z,94.00
2018-12-03T08:02:07.935Z,94.10
2018-12-03T08:04:37.813Z,94.20
2018-12-03T08:07:07.748Z,94.40
2018-12-03T08:09:37.599Z,94.50
2018-12-03T08:12:07.481Z,94.80
2018-12-03T08:14:37.297Z,94.60
2018-12-03T08:17:07.198Z,94.70
2018-12-03T08:19:37.054Z,94.90
2018-12-03T08:22:09.276Z,95.30
2018-12-03T08:24:39.187Z,95.10
2018-12-03T08:27:09.090Z,95.20
2018-12-03T08:29:38.982Z,95.10
2018-12-03T08:32:08.918Z,94.90
2018-12-03T08:34:38.796Z,94.70
2018-12-03T08:37:08.647Z,94.60
2018-12-03T08:39:38.882Z,94.60
2018-12-03T08:42:08.893Z,94.40
2018-12-03T08:44:38.715Z,94.50
2018-12-03T08:47:13.539Z,94.50
2018-12-03T08:49:44.314Z,94.30
2018-12-03T08:52:14.798Z,94.10
2018-12-03T08:54:44.640Z,94.20
2018-12-03T08:57:14.581Z,94.00
2018-12-03T08:59:46.376Z,94.20
2018-12-03T09:02:16.249Z,94.40
2018-12-03T09:04:52.360Z,94.00
2018-12-03T09:07:22.213Z,94.00
2018-12-03T09:09:52.057Z,93.60
2018-12-03T09:12:21.928Z,93.70
2018-12-03T09:14:51.828Z,93.40
2018-12-03T09:17:21.770Z,93.20
2018-12-03T09:19:51.959Z,93.30
2018-12-03T09:22:21.844Z,92.50
2018-12-03T09:24:51.738Z,92.40
2018-12-03T09:27:22.301Z,92.60
2018-12-03T09:29:56.018Z,92.60
2018-12-03T09:32:31.508Z,92.20
2018-12-03T09:35:04.611Z,92.40
2018-12-03T09:37:34.495Z,92.60
2018-12-03T09:40:07.511Z,92.40
2018-12-03T09:42:37.443Z,92.60
2018-12-03T09:45:15.621Z,92.50
2018-12-03T09:47:46.062Z,92.70
2018-12-03T09:50:22.136Z,92.30
2018-12-03T09:52:52.115Z,92.60
2018-12-03T09:55:29.796Z,92.70
2018-12-03T09:58:17.721Z,92.70
2018-12-03T10:00:47.614Z,92.90
2018-12-03T10:03:33.159Z,93.10
2018-12-03T10:06:11.626Z,93.00
2018-12-03T10:08:41.561Z,92.60
2018-12-03T10:11:11.367Z,92.80
2018-12-03T10:13:41.311Z,92.90
2018-12-03T10:16:11.278Z,93.00
2018-12-03T10:18:46.831Z,93.10
2018-12-03T10:21:16.834Z,93.70
2018-12-03T10:23:46.820Z,93.90
2018-12-03T10:26:16.655Z,94.20
2018-12-03T10:28:46.589Z,94.30
2018-12-03T10:31:16.455Z,94.40
2018-12-03T10:33:46.354Z,94.40
2018-12-03T10:36:16.288Z,94.60
2018-12-03T10:38:48.049Z,94.80
2018-12-03T10:41:25.887Z,95.00
2018-12-03T10:43:59.048Z,95.10
2018-12-03T10:46:28.990Z,95.10
2018-12-03T10:49:08.921Z,95.00
2018-12-03T10:51:39.548Z,94.90
2018-12-03T10:54:09.413Z,94.80
2018-12-03T10:56:39.228Z,94.70
2018-12-03T10:59:09.417Z,94.50
2018-12-03T11:02:13.777Z,94.50
2018-12-03T11:05:01.454Z,94.30
2018-12-03T11:07:31.315Z,94.20
2018-12-03T11:10:01.192Z,94.20
2018-12-03T11:12:31.111Z,93.50
2018-12-03T11:15:07.390Z,93.10
2018-12-03T11:17:37.252Z,93.50
2018-12-03T11:20:08.174Z,92.70
2018-12-03T11:22:38.158Z,92.60
2018-12-03T11:25:12.756Z,92.60
2018-12-03T11:27:44.936Z,91.70
2018-12-03T11:30:15.030Z,91.90
2018-12-03T11:32:44.987Z,91.90
2018-12-03T11:35:21.455Z,91.50
2018-12-03T11:37:52.099Z,91.10
2018-12-03T11:40:34.014Z,91.60
2018-12-03T11:43:03.893Z,91.60
2018-12-03T11:45:33.813Z,91.30
2018-12-03T11:48:03.718Z,91.60
2018-12-03T11:50:33.613Z,91.20
2018-12-03T11:53:03.505Z,91.30
2018-12-03T11:55:33.417Z,90.90
2018-12-03T11:58:03.316Z,90.80
2018-12-03T12:00:33.205Z,90.10
2018-12-03T12:03:03.081Z,89.40
2018-12-03T12:05:32.973Z,90.00
2018-12-03T12:08:02.956Z,89.80
2018-12-03T12:10:32.941Z,89.00
2018-12-03T12:13:02.867Z,89.40
2018-12-03T12:15:32.764Z,88.50
2018-12-03T12:18:02.665Z,87.90
2018-12-03T12:20:32.597Z,87.80
2018-12-03T12:23:02.638Z,87.30
2018-12-03T12:25:32.571Z,88.60
2018-12-03T12:28:02.503Z,88.00
2018-12-03T12:30:32.532Z,87.30
2018-12-03T12:33:02.431Z,87.60
2018-12-03T12:35:32.323Z,88.10
2018-12-03T12:38:02.142Z,88.80
2018-12-03T12:40:32.007Z,87.90
2018-12-03T12:43:01.941Z,87.80
2018-12-03T12:45:40.816Z,87.90
2018-12-03T12:48:10.763Z,88.30
2018-12-03T12:50:40.717Z,87.20
2018-12-03T12:53:10.593Z,87.30
2018-12-03T12:55:40.476Z,87.20
2018-12-03T12:58:10.392Z,86.10
2018-12-03T13:00:40.512Z,87.20
2018-12-03T13:03:10.441Z,86.60
2018-12-03T13:05:40.371Z,87.20
2018-12-03T13:08:10.250Z,86.70
2018-12-03T13:10:40.199Z,86.70
2018-12-03T13:13:10.190Z,87.00
2018-12-03T13:15:40.263Z,87.90
2018-12-03T13:18:10.182Z,88.40
2018-12-03T13:20:40.075Z,89.00
2018-12-03T13:23:09.922Z,89.40
2018-12-03T13:25:39.812Z,90.00
2018-12-03T13:28:09.781Z,90.10
2018-12-03T13:30:39.730Z,90.00
2018-12-03T13:33:09.603Z,90.10
2018-12-03T13:35:40.459Z,90.30
2018-12-03T13:38:10.385Z,90.60
2018-12-03T13:40:40.428Z,91.00
2018-12-03T13:43:10.634Z,91.60
2018-12-03T13:45:40.647Z,91.60
2018-12-03T13:48:10.837Z,91.80
2018-12-03T13:50:40.797Z,91.90
2018-12-03T13:53:10.696Z,92.30
2018-12-03T13:55:40.663Z,92.40
2018-12-03T13:58:10.554Z,92.40
2018-12-03T14:00:41.464Z,92.30
2018-12-03T14:03:32.989Z,92.70
2018-12-03T14:06:29.075Z,93.00
2018-12-03T14:09:40.629Z,93.40
2018-12-03T14:12:32.483Z,93.70
2018-12-03T14:15:45.526Z,93.80
2018-12-03T14:18:33.864Z,94.00
2018-12-03T14:21:26.881Z,94.30
2018-12-03T14:23:59.305Z,94.30
2018-12-03T14:26:29.296Z,94.30
2018-12-03T14:28:59.297Z,94.30
2018-12-03T14:31:29.267Z,94.30
2018-12-03T14:33:59.312Z,94.30
2018-12-03T14:36:29.276Z,94.30
2018-12-03T14:38:59.309Z,94.30
2018-12-03T14:41:29.233Z,94.30
2018-12-03T14:43:59.174Z,94.30
2018-12-03T14:46:29.187Z,94.10
2018-12-03T14:48:59.079Z,93.90
2018-12-03T14:51:29.559Z,94.10
2018-12-03T14:53:59.595Z,94.30
2018-12-03T14:56:29.572Z,94.50
2018-12-03T14:58:59.458Z,94.20
2018-12-03T15:01:29.443Z,94.30
2018-12-03T15:04:01.288Z,94.30
2018-12-03T15:06:31.284Z,94.30
2018-12-03T15:09:02.138Z,94.30
2018-12-03T15:11:32.081Z,94.20
2018-12-03T15:14:02.022Z,94.20
2018-12-03T15:16:31.954Z,94.20
2018-12-03T15:19:01.910Z,94.20
2018-12-03T15:21:31.981Z,94.10
2018-12-03T15:24:01.942Z,94.20
2018-12-03T15:26:31.945Z,94.40
2018-12-03T15:29:02.043Z,94.30
2018-12-03T15:31:32.104Z,93.80
2018-12-03T15:34:02.047Z,93.60
2018-12-03T15:36:32.036Z,93.00
2018-12-03T15:39:02.205Z,93.00
2018-12-03T15:41:32.110Z,92.40
2018-12-03T15:44:02.059Z,92.10
2018-12-03T15:46:32.027Z,91.80
2018-12-03T15:49:02.007Z,91.70
2018-12-03T15:51:32.003Z,91.90
2018-12-03T15:54:01.922Z,91.60
2018-12-03T15:56:31.910Z,91.60
2018-12-03T15:59:01.856Z,91.90
2018-12-03T16:01:31.787Z,91.40
2018-12-03T16:04:01.648Z,91.90
2018-12-03T16:06:31.655Z,91.50
2018-12-03T16:09:01.608Z,91.30
2018-12-03T16:11:31.633Z,90.80
2018-12-03T16:14:01.632Z,90.60
2018-12-03T16:16:31.663Z,90.60
2018-12-03T16:19:02.394Z,90.90
2018-12-03T16:21:32.595Z,90.90
2018-12-03T16:24:02.588Z,91.10
2018-12-03T16:26:32.575Z,91.10
2018-12-03T16:29:02.514Z,90.90
2018-12-03T16:31:32.504Z,90.90
2018-12-03T16:34:02.426Z,91.10
2018-12-03T16:36:32.372Z,91.00
2018-12-03T16:39:03.701Z,90.70
2018-12-03T16:41:33.724Z,90.90
2018-12-03T16:44:03.792Z,91.00
2018-12-03T16:46:33.838Z,91.00
2018-12-03T16:49:03.809Z,90.90
2018-12-03T16:51:33.770Z,90.90
2018-12-03T16:54:03.741Z,90.50
2018-12-03T16:56:33.954Z,90.10
2018-12-03T16:59:03.893Z,90.30
2018-12-03T17:01:34.022Z,90.20
2018-12-03T17:04:04.010Z,90.30
2018-12-03T17:06:34.001Z,90.20
2018-12-03T17:09:05.062Z,90.00
2018-12-03T17:11:35.089Z,90.00
2018-12-03T17:14:05.070Z,89.50
2018-12-03T17:16:35.025Z,88.80
2018-12-03T17:19:05.039Z,88.90
2018-12-03T17:22:34.598Z,88.40
2018-12-03T17:25:07.545Z,88.80
2018-12-03T17:27:37.529Z,88.80
2018-12-03T17:30:08.667Z,89.00
2018-12-03T17:32:38.603Z,88.50
2018-12-03T17:35:08.666Z,87.70
2018-12-03T17:37:38.836Z,86.70
2018-12-03T17:40:11.636Z,86.80
2018-12-03T17:42:41.786Z,88.40
2018-12-03T17:45:13.550Z,90.00
2018-12-03T17:47:43.892Z,90.40
2018-12-03T17:50:13.924Z,90.60
2018-12-03T17:52:44.035Z,90.70
2018-12-03T17:55:14.141Z,90.80
2018-12-03T17:57:44.184Z,90.70
2018-12-03T18:00:16.537Z,90.70
2018-12-03T18:02:46.714Z,90.90
2018-12-03T18:05:16.784Z,90.90
2018-12-03T18:07:46.797Z,90.90
2018-12-03T18:10:16.810Z,90.90
2018-12-03T18:12:46.866Z,91.10
2018-12-03T18:15:17.068Z,90.90
2018-12-03T18:17:47.248Z,90.90
2018-12-03T18:20:17.350Z,90.80
2018-12-03T18:22:47.413Z,90.70
2018-12-03T18:25:17.396Z,90.80
2018-12-03T18:27:47.460Z,90.60
2018-12-03T18:30:17.501Z,90.40
2018-12-03T18:32:47.533Z,90.30
2018-12-03T18:35:17.503Z,90.40
2018-12-03T18:37:47.598Z,90.50
2018-12-03T18:40:17.711Z,90.40
2018-12-03T18:42:47.798Z,90.50
2018-12-03T18:45:18.260Z,90.10
2018-12-03T18:47:48.289Z,90.00
2018-12-03T18:50:23.314Z,90.00
2018-12-03T18:52:53.354Z,90.00
2018-12-03T18:55:23.473Z,89.80
2018-12-03T18:58:01.325Z,90.10
2018-12-03T19:00:31.511Z,89.90
2018-12-03T19:03:01.751Z,90.20
2018-12-03T19:05:31.952Z,90.00
2018-12-03T19:08:02.057Z,90.00
2018-12-03T19:10:32.229Z,90.40
2018-12-03T19:13:02.388Z,90.10
2018-12-03T19:15:32.570Z,90.20
2018-12-03T19:18:02.639Z,89.90
2018-12-03T19:20:32.813Z,90.00
2018-12-03T19:23:02.854Z,89.90
2018-12-03T19:25:32.989Z,89.80
2018-12-03T19:28:03.012Z,90.10
2018-12-03T19:30:33.075Z,90.20
2018-12-03T19:33:03.129Z,90.10
2018-12-03T19:35:33.266Z,90.00
2018-12-03T19:38:03.423Z,90.10
2018-12-03T19:40:33.689Z,90.20
2018-12-03T19:43:03.808Z,90.10
2018-12-03T19:45:33.926Z,90.00
2018-12-03T19:48:04.285Z,90.10
2018-12-03T19:50:34.242Z,90.20
2018-12-03T19:53:04.383Z,90.30
2018-12-03T19:55:36.919Z,90.20
2018-12-03T19:58:21.087Z,90.10
2018-12-03T20:00:51.622Z,90.20
2018-12-03T20:03:21.619Z,90.20
2018-12-03T20:05:51.743Z,90.40
2018-12-03T20:08:21.885Z,90.50
2018-12-03T20:10:51.946Z,90.60
2018-12-03T20:13:22.092Z,90.80
2018-12-03T20:15:52.448Z,90.60
2018-12-03T20:18:22.526Z,90.70
2018-12-03T20:21:00.773Z,90.80
2018-12-03T20:23:38.655Z,90.70
2018-12-03T20:26:19.844Z,90.60
2018-12-03T20:29:20.825Z,90.70
2018-12-03T20:32:16.392Z,90.80
2018-12-03T20:34:59.828Z,91.00
2018-12-03T20:38:33.107Z,91.20
2018-12-03T20:41:31.141Z,91.20
2018-12-03T20:44:16.760Z,91.40
2018-12-03T20:47:25.131Z,91.40
2018-12-03T20:50:33.523Z,91.40
2018-12-03T20:53:04.065Z,91.30
2018-12-03T20:55:41.665Z,91.40
2018-12-03T20:58:11.787Z,91.50
2018-12-03T21:00:42.833Z,91.50
2018-12-03T21:03:14.801Z,91.50
2018-12-03T21:05:45.275Z,91.40
2018-12-03T21:08:15.754Z,91.40
2018-12-03T21:10:45.776Z,91.50
2018-12-03T21:13:16.341Z,91.30
2018-12-03T21:15:46.408Z,91.30
2018-12-03T21:18:16.506Z,91.30
2018-12-03T21:20:51.463Z,91.10
2018-12-03T21:23:22.019Z,91.20
2018-12-03T21:25:54.845Z,91.30
2018-12-03T21:28:25.045Z,91.40
2018-12-03T21:30:58.052Z,91.40
2018-12-03T21:33:28.032Z,91.70
2018-12-03T21:35:58.062Z,91.50
2018-12-03T21:38:28.119Z,91.70
2018-12-03T21:40:58.279Z,91.70
2018-12-03T21:43:28.422Z,91.60
2018-12-03T21:45:58.380Z,91.80
2018-12-03T21:48:28.820Z,91.70
2018-12-03T21:50:58.946Z,91.70
2018-12-03T21:53:29.540Z,91.80
2018-12-03T21:56:00.027Z,91.80
2018-12-03T21:58:31.447Z,91.60
2018-12-03T22:01:01.488Z,91.60
2018-12-03T22:03:31.714Z,91.20
2018-12-03T22:06:01.679Z,91.10
2018-12-03T22:08:31.728Z,91.10
2018-12-03T22:11:01.912Z,90.40
2018-12-03T22:13:31.988Z,90.50
2018-12-03T22:16:01.943Z,90.00
2018-12-03T22:18:31.942Z,89.80
2018-12-03T22:21:02.135Z,89.70
2018-12-03T22:23:32.264Z,89.80
2018-12-03T22:26:02.204Z,89.60
2018-12-03T22:28:32.231Z,89.50
2018-12-03T22:31:02.143Z,88.70
2018-12-03T22:33:32.116Z,88.40
2018-12-03T22:36:02.167Z,88.20
2018-12-03T22:38:32.322Z,88.10
2018-12-03T22:41:02.242Z,88.10
2018-12-03T22:43:32.331Z,87.00
2018-12-03T22:46:02.312Z,87.10
2018-12-03T22:48:33.391Z,86.90
2018-12-03T22:51:03.353Z,86.50
2018-12-03T22:53:36.922Z,86.10
2018-12-03T22:56:07.030Z,85.30
2018-12-03T22:59:24.240Z,85.20
2018-12-03T23:01:52.502Z,85.00
2018-12-03T23:04:20.750Z,84.10
2018-12-03T23:06:48.902Z,83.60
2018-12-03T23:09:16.976Z,83.40
2018-12-03T23:11:45.135Z,83.00
2018-12-03T23:14:13.268Z,82.40
2018-12-03T23:16:41.469Z,82.20
2018-12-03T23:19:09.872Z,81.90
2018-12-03T23:21:38.355Z,82.40
2018-12-03T23:24:06.478Z,81.90
2018-12-03T23:26:34.867Z,81.90
2018-12-03T23:29:04.150Z,81.60
2018-12-03T23:31:32.302Z,81.00
2018-12-03T23:34:00.444Z,81.20
2018-12-03T23:36:28.530Z,82.30
2018-12-03T23:38:56.968Z,82.80
2018-12-03T23:41:25.163Z,83.50
2018-12-03T23:43:53.255Z,84.10
2018-12-03T23:46:21.361Z,83.80
2018-12-03T23:48:49.478Z,83.70
2018-12-03T23:51:17.549Z,83.40
2018-12-03T23:53:45.627Z,83.60
2018-12-03T23:56:13.692Z,84.40
2018-12-03T23:58:41.774Z,83.80
